sensor_id;sensor_type;location;lat;lon;timestamp;P1;P2;P0
66336;PMS1003;53139;45.576;5.304;2023-04-03T00:02:35;3.00;3.00;2.00
66336;PMS1003;53139;45.576;5.304;2023-04-03T00:05:35;6.00;2.00;1.25
66336;PMS1003;53139;45.576;5.304;2023-04-03T00:08:36;1.50;1.00;1.00
66336;PMS1003;53139;45.576;5.304;2023-04-03T00:11:37;2.50;2.00;2.00
66336;PMS1003;53139;45.576;5.304;2023-04-03T00:14:38;1.25;1.00;1.00
66336;PMS1003;53139;45.576;5.304;2023-04-03T00:17:38;2.50;1.25;1.00
66336;PMS1003;53139;45.576;5.304;2023-04-03T00:20:38;2.75;2.00;1.75
66336;PMS1003;53139;45.576;5.304;2023-04-03T00:23:39;3.25;2.00;1.75
66336;PMS1003;53139;45.576;5.304;2023-04-03T00:26:39;3.25;2.00;1.00
66336;PMS1003;53139;45.576;5.304;2023-04-03T00:29:40;4.25;2.00;2.00
66336;PMS1003;53139;45.576;5.304;2023-04-03T00:32:40;4.00;1.00;1.00
66336;PMS1003;53139;45.576;5.304;2023-04-03T00:35:41;3.75;3.25;2.00
66336;PMS1003;53139;45.576;5.304;2023-04-03T00:38:42;3.50;3.50;3.00
66336;PMS1003;53139;45.576;5.304;2023-04-03T00:41:42;2.00;2.00;2.00
66336;PMS1003;53139;45.576;5.304;2023-04-03T00:47:46;3.00;3.00;2.50
66336;PMS1003;53139;45.576;5.304;2023-04-03T00:50:46;7.25;3.00;2.00
66336;PMS1003;53139;45.576;5.304;2023-04-03T00:53:52;6.50;2.25;2.00
66336;PMS1003;53139;45.576;5.304;2023-04-03T00:56:56;3.50;3.00;2.00
66336;PMS1003;53139;45.576;5.304;2023-04-03T00:59:59;3.50;1.75;1.00
66336;PMS1003;53139;45.576;5.304;2023-04-03T01:03:04;3.25;2.50;2.00
66336;PMS1003;53139;45.576;5.304;2023-04-03T01:06:05;3.00;3.00;2.00
66336;PMS1003;53139;45.576;5.304;2023-04-03T01:09:05;3.50;3.50;2.50
66336;PMS1003;53139;45.576;5.304;2023-04-03T01:15:28;5.75;3.75;2.00
66336;PMS1003;53139;45.576;5.304;2023-04-03T01:18:36;3.00;3.00;2.00
66336;PMS1003;53139;45.576;5.304;2023-04-03T01:25:26;2.50;2.50;2.00
66336;PMS1003;53139;45.576;5.304;2023-04-03T01:28:28;4.00;3.25;2.25
66336;PMS1003;53139;45.576;5.304;2023-04-03T01:31:41;2.75;2.75;2.00
66336;PMS1003;53139;45.576;5.304;2023-04-03T01:34:49;3.00;3.00;2.50
66336;PMS1003;53139;45.576;5.304;2023-04-03T01:37:49;3.00;1.75;1.00
66336;PMS1003;53139;45.576;5.304;2023-04-03T01:40:50;1.50;1.50;1.00
66336;PMS1003;53139;45.576;5.304;2023-04-03T01:43:50;0.00;0.00;0.00
66336;PMS1003;53139;45.576;5.304;2023-04-03T01:46:51;2.00;1.25;1.00
66336;PMS1003;53139;45.576;5.304;2023-04-03T01:49:51;2.00;2.00;1.00
66336;PMS1003;53139;45.576;5.304;2023-04-03T01:52:52;2.00;2.00;1.00
66336;PMS1003;53139;45.576;5.304;2023-04-03T01:55:52;1.00;1.00;1.00
66336;PMS1003;53139;45.576;5.304;2023-04-03T01:58:52;1.25;1.25;0.75
66336;PMS1003;53139;45.576;5.304;2023-04-03T02:01:53;0.75;0.75;0.75
66336;PMS1003;53139;45.576;5.304;2023-04-03T02:04:53;2.00;2.00;1.50
66336;PMS1003;53139;45.576;5.304;2023-04-03T02:07:54;3.50;2.00;1.50
66336;PMS1003;53139;45.576;5.304;2023-04-03T02:10:55;3.00;2.00;0.50
66336;PMS1003;53139;45.576;5.304;2023-04-03T02:13:55;2.00;2.00;1.25
66336;PMS1003;53139;45.576;5.304;2023-04-03T02:16:56;1.25;1.25;1.00
66336;PMS1003;53139;45.576;5.304;2023-04-03T02:19:56;2.00;2.00;2.00
66336;PMS1003;53139;45.576;5.304;2023-04-03T02:22:56;3.00;3.00;2.25
66336;PMS1003;53139;45.576;5.304;2023-04-03T02:26:04;2.00;2.00;1.00
66336;PMS1003;53139;45.576;5.304;2023-04-03T02:29:08;5.25;3.00;2.25
66336;PMS1003;53139;45.576;5.304;2023-04-03T02:32:09;6.50;6.50;4.00
66336;PMS1003;53139;45.576;5.304;2023-04-03T02:35:10;2.00;1.00;1.00
66336;PMS1003;53139;45.576;5.304;2023-04-03T02:38:10;5.00;3.25;2.75
66336;PMS1003;53139;45.576;5.304;2023-04-03T02:41:11;6.25;4.00;2.00
66336;PMS1003;53139;45.576;5.304;2023-04-03T02:44:12;3.00;3.00;2.75
66336;PMS1003;53139;45.576;5.304;2023-04-03T02:47:13;2.00;2.00;1.50
66336;PMS1003;53139;45.576;5.304;2023-04-03T02:50:13;2.50;2.00;1.50
66336;PMS1003;53139;45.576;5.304;2023-04-03T02:53:14;1.50;1.00;0.75
66336;PMS1003;53139;45.576;5.304;2023-04-03T02:56:15;3.00;1.00;1.00
66336;PMS1003;53139;45.576;5.304;2023-04-03T02:59:17;3.00;1.75;1.00
66336;PMS1003;53139;45.576;5.304;2023-04-03T03:02:17;3.75;2.00;1.75
66336;PMS1003;53139;45.576;5.304;2023-04-03T03:05:17;2.00;2.00;1.50
66336;PMS1003;53139;45.576;5.304;2023-04-03T03:08:18;3.25;2.00;1.50
66336;PMS1003;53139;45.576;5.304;2023-04-03T03:11:20;1.25;1.25;1.00
66336;PMS1003;53139;45.576;5.304;2023-04-03T03:14:20;2.25;2.00;2.00
66336;PMS1003;53139;45.576;5.304;2023-04-03T03:17:21;4.50;2.00;2.00
66336;PMS1003;53139;45.576;5.304;2023-04-03T03:20:21;3.00;2.00;1.00
66336;PMS1003;53139;45.576;5.304;2023-04-03T03:23:22;3.00;2.00;1.00
66336;PMS1003;53139;45.576;5.304;2023-04-03T03:26:23;1.25;1.25;1.00
66336;PMS1003;53139;45.576;5.304;2023-04-03T03:29:25;1.00;1.00;1.00
66336;PMS1003;53139;45.576;5.304;2023-04-03T03:32:25;4.00;2.00;1.00
66336;PMS1003;53139;45.576;5.304;2023-04-03T03:35:25;2.00;2.00;2.00
66336;PMS1003;53139;45.576;5.304;2023-04-03T03:38:26;1.00;1.00;1.00
66336;PMS1003;53139;45.576;5.304;2023-04-03T03:41:26;3.00;2.50;2.00
66336;PMS1003;53139;45.576;5.304;2023-04-03T03:44:27;3.00;3.00;2.00
66336;PMS1003;53139;45.576;5.304;2023-04-03T03:47:29;2.50;2.25;2.00
66336;PMS1003;53139;45.576;5.304;2023-04-03T03:50:29;1.00;1.00;1.00
66336;PMS1003;53139;45.576;5.304;2023-04-03T03:53:29;4.00;3.00;2.00
66336;PMS1003;53139;45.576;5.304;2023-04-03T03:56:30;3.00;3.00;2.00
66336;PMS1003;53139;45.576;5.304;2023-04-03T03:59:30;2.00;1.50;1.00
66336;PMS1003;53139;45.576;5.304;2023-04-03T04:02:31;3.75;3.00;2.00
66336;PMS1003;53139;45.576;5.304;2023-04-03T04:05:32;1.75;1.75;1.75
66336;PMS1003;53139;45.576;5.304;2023-04-03T04:08:33;4.75;3.00;2.75
66336;PMS1003;53139;45.576;5.304;2023-04-03T04:11:33;3.00;2.50;2.25
66336;PMS1003;53139;45.576;5.304;2023-04-03T04:14:34;2.00;2.00;1.25
66336;PMS1003;53139;45.576;5.304;2023-04-03T04:17:35;3.00;3.00;2.00
66336;PMS1003;53139;45.576;5.304;2023-04-03T04:20:36;2.50;2.00;2.00
66336;PMS1003;53139;45.576;5.304;2023-04-03T04:23:36;3.25;2.50;2.00
66336;PMS1003;53139;45.576;5.304;2023-04-03T04:26:37;6.50;2.25;2.00
66336;PMS1003;53139;45.576;5.304;2023-04-03T04:29:37;3.00;2.75;2.75
66336;PMS1003;53139;45.576;5.304;2023-04-03T04:32:38;3.00;3.00;2.00
66336;PMS1003;53139;45.576;5.304;2023-04-03T04:35:38;2.25;1.00;1.00
66336;PMS1003;53139;45.576;5.304;2023-04-03T04:38:39;4.00;2.75;2.00
66336;PMS1003;53139;45.576;5.304;2023-04-03T04:41:39;2.75;2.00;2.00
66336;PMS1003;53139;45.576;5.304;2023-04-03T04:44:39;6.75;3.25;2.75
66336;PMS1003;53139;45.576;5.304;2023-04-03T04:47:40;4.00;4.00;3.00
66336;PMS1003;53139;45.576;5.304;2023-04-03T04:50:41;5.50;4.00;2.25
66336;PMS1003;53139;45.576;5.304;2023-04-03T04:53:41;3.00;3.00;2.00
66336;PMS1003;53139;45.576;5.304;2023-04-03T04:56:42;3.00;3.00;2.00
66336;PMS1003;53139;45.576;5.304;2023-04-03T04:59:42;3.75;3.00;2.00
66336;PMS1003;53139;45.576;5.304;2023-04-03T05:02:43;7.00;3.25;2.50
66336;PMS1003;53139;45.576;5.304;2023-04-03T05:05:43;4.00;3.00;2.00
66336;PMS1003;53139;45.576;5.304;2023-04-03T05:08:44;4.00;3.75;3.00
66336;PMS1003;53139;45.576;5.304;2023-04-03T05:11:44;5.00;5.00;3.50
66336;PMS1003;53139;45.576;5.304;2023-04-03T05:14:44;8.33;5.33;3.00
66336;PMS1003;53139;45.576;5.304;2023-04-03T05:17:45;4.00;4.00;3.00
66336;PMS1003;53139;45.576;5.304;2023-04-03T05:20:47;3.50;3.50;3.00
66336;PMS1003;53139;45.576;5.304;2023-04-03T05:23:49;5.00;3.00;2.50
66336;PMS1003;53139;45.576;5.304;2023-04-03T05:26:49;4.50;3.50;3.00
66336;PMS1003;53139;45.576;5.304;2023-04-03T05:29:50;6.25;4.00;3.00
66336;PMS1003;53139;45.576;5.304;2023-04-03T05:32:50;6.25;6.00;3.75
66336;PMS1003;53139;45.576;5.304;2023-04-03T05:35:50;6.50;6.00;3.75
66336;PMS1003;53139;45.576;5.304;2023-04-03T05:38:51;6.00;3.33;3.00
66336;PMS1003;53139;45.576;5.304;2023-04-03T05:41:52;6.50;4.00;3.00
66336;PMS1003;53139;45.576;5.304;2023-04-03T05:44:52;4.00;3.00;3.00
66336;PMS1003;53139;45.576;5.304;2023-04-03T05:47:53;5.75;2.00;2.00
66336;PMS1003;53139;45.576;5.304;2023-04-03T05:50:53;4.00;3.00;2.50
66336;PMS1003;53139;45.576;5.304;2023-04-03T05:54:15;5.00;2.75;2.00
66336;PMS1003;53139;45.576;5.304;2023-04-03T05:57:39;3.75;3.00;2.00
66336;PMS1003;53139;45.576;5.304;2023-04-03T06:00:52;4.25;3.25;2.25
66336;PMS1003;53139;45.576;5.304;2023-04-03T06:04:10;3.50;3.50;2.75
66336;PMS1003;53139;45.576;5.304;2023-04-03T06:07:50;3.50;3.25;2.25
66336;PMS1003;53139;45.576;5.304;2023-04-03T06:10:57;3.25;2.00;2.00
66336;PMS1003;53139;45.576;5.304;2023-04-03T06:14:04;2.50;1.00;0.00
66336;PMS1003;53139;45.576;5.304;2023-04-03T06:17:11;6.00;2.75;2.00
66336;PMS1003;53139;45.576;5.304;2023-04-03T06:20:29;3.50;3.00;2.00
66336;PMS1003;53139;45.576;5.304;2023-04-03T06:23:53;6.50;3.00;2.00
66336;PMS1003;53139;45.576;5.304;2023-04-03T06:26:57;5.50;5.50;4.00
66336;PMS1003;53139;45.576;5.304;2023-04-03T06:30:23;5.25;4.00;3.00
66336;PMS1003;53139;45.576;5.304;2023-04-03T06:34:10;5.25;4.50;4.00
66336;PMS1003;53139;45.576;5.304;2023-04-03T06:37:45;8.00;6.00;4.00
66336;PMS1003;53139;45.576;5.304;2023-04-03T06:41:15;6.75;3.50;2.75
66336;PMS1003;53139;45.576;5.304;2023-04-03T06:44:17;6.75;4.50;3.25
66336;PMS1003;53139;45.576;5.304;2023-04-03T06:47:31;7.75;6.00;3.75
66336;PMS1003;53139;45.576;5.304;2023-04-03T06:50:35;4.75;4.75;2.00
66336;PMS1003;53139;45.576;5.304;2023-04-03T06:53:43;7.00;6.50;3.75
66336;PMS1003;53139;45.576;5.304;2023-04-03T06:57:03;7.25;4.00;3.00
66336;PMS1003;53139;45.576;5.304;2023-04-03T07:00:19;6.00;3.00;2.50
66336;PMS1003;53139;45.576;5.304;2023-04-03T07:03:23;2.75;2.75;2.00
66336;PMS1003;53139;45.576;5.304;2023-04-03T07:06:51;4.00;3.50;3.00
66336;PMS1003;53139;45.576;5.304;2023-04-03T07:10:42;3.00;3.00;2.00
66336;PMS1003;53139;45.576;5.304;2023-04-03T07:14:25;4.00;4.00;3.00
66336;PMS1003;53139;45.576;5.304;2023-04-03T07:17:59;5.75;5.25;3.00
66336;PMS1003;53139;45.576;5.304;2023-04-03T07:21:24;4.00;4.00;3.00
66336;PMS1003;53139;45.576;5.304;2023-04-03T07:24:32;4.75;3.50;3.00
66336;PMS1003;53139;45.576;5.304;2023-04-03T07:27:47;7.00;5.50;3.75
66336;PMS1003;53139;45.576;5.304;2023-04-03T07:31:06;5.50;5.50;4.00
66336;PMS1003;53139;45.576;5.304;2023-04-03T07:34:27;11.25;8.75;6.75
66336;PMS1003;53139;45.576;5.304;2023-04-03T07:37:42;13.00;8.25;7.00
66336;PMS1003;53139;45.576;5.304;2023-04-03T07:40:46;8.25;8.25;6.50
66336;PMS1003;53139;45.576;5.304;2023-04-03T07:43:48;10.50;7.75;4.50
66336;PMS1003;53139;45.576;5.304;2023-04-03T07:47:33;9.75;9.00;5.50
66336;PMS1003;53139;45.576;5.304;2023-04-03T07:51:18;12.50;8.75;5.75
66336;PMS1003;53139;45.576;5.304;2023-04-03T07:55:00;14.50;9.50;7.50
66336;PMS1003;53139;45.576;5.304;2023-04-03T07:58:38;14.00;10.00;7.25
66336;PMS1003;53139;45.576;5.304;2023-04-03T08:01:39;13.25;9.00;6.25
66336;PMS1003;53139;45.576;5.304;2023-04-03T08:05:01;10.00;8.50;5.00
66336;PMS1003;53139;45.576;5.304;2023-04-03T08:08:09;9.50;9.00;6.00
66336;PMS1003;53139;45.576;5.304;2023-04-03T08:11:15;15.25;11.50;8.25
66336;PMS1003;53139;45.576;5.304;2023-04-03T08:14:37;11.50;9.25;7.00
66336;PMS1003;53139;45.576;5.304;2023-04-03T08:18:01;14.50;12.75;9.25
66336;PMS1003;53139;45.576;5.304;2023-04-03T08:21:49;11.50;10.00;7.50
66336;PMS1003;53139;45.576;5.304;2023-04-03T08:25:42;14.25;13.00;9.00
66336;PMS1003;53139;45.576;5.304;2023-04-03T08:29:29;17.25;14.25;9.00
66336;PMS1003;53139;45.576;5.304;2023-04-03T08:33:16;15.75;10.75;8.00
66336;PMS1003;53139;45.576;5.304;2023-04-03T08:36:47;9.75;9.75;7.00
66336;PMS1003;53139;45.576;5.304;2023-04-03T08:40:35;9.75;8.50;5.00
66336;PMS1003;53139;45.576;5.304;2023-04-03T08:47:47;14.00;9.50;6.50
66336;PMS1003;53139;45.576;5.304;2023-04-03T08:51:23;9.50;9.50;6.25
66336;PMS1003;53139;45.576;5.304;2023-04-03T08:57:40;12.00;11.00;7.00
66336;PMS1003;53139;45.576;5.304;2023-04-03T09:00:51;17.75;10.50;7.00
66336;PMS1003;53139;45.576;5.304;2023-04-03T09:03:57;12.00;9.50;6.50
66336;PMS1003;53139;45.576;5.304;2023-04-03T09:07:03;13.00;10.00;6.25
66336;PMS1003;53139;45.576;5.304;2023-04-03T09:10:14;13.00;10.00;6.25
66336;PMS1003;53139;45.576;5.304;2023-04-03T09:13:30;10.75;9.25;8.00
66336;PMS1003;53139;45.576;5.304;2023-04-03T09:19:57;16.25;11.75;9.00
66336;PMS1003;53139;45.576;5.304;2023-04-03T09:23:10;10.00;8.25;4.25
66336;PMS1003;53139;45.576;5.304;2023-04-03T09:26:36;8.00;8.00;4.75
66336;PMS1003;53139;45.576;5.304;2023-04-03T09:29:53;11.00;10.00;6.00
66336;PMS1003;53139;45.576;5.304;2023-04-03T09:32:57;12.00;10.25;6.25
66336;PMS1003;53139;45.576;5.304;2023-04-03T09:35:57;10.25;8.75;6.50
66336;PMS1003;53139;45.576;5.304;2023-04-03T09:39:04;10.75;10.00;5.50
66336;PMS1003;53139;45.576;5.304;2023-04-03T09:42:18;9.25;8.25;5.00
66336;PMS1003;53139;45.576;5.304;2023-04-03T09:46:15;9.50;8.75;6.50
66336;PMS1003;53139;45.576;5.304;2023-04-03T09:49:51;10.25;8.25;4.50
66336;PMS1003;53139;45.576;5.304;2023-04-03T09:53:44;9.50;9.50;6.25
66336;PMS1003;53139;45.576;5.304;2023-04-03T09:57:23;8.25;7.75;5.00
66336;PMS1003;53139;45.576;5.304;2023-04-03T10:01:02;13.25;11.25;8.00
66336;PMS1003;53139;45.576;5.304;2023-04-03T10:04:42;11.75;9.00;5.00
66336;PMS1003;53139;45.576;5.304;2023-04-03T10:07:49;12.00;8.00;5.00
66336;PMS1003;53139;45.576;5.304;2023-04-03T10:14:16;10.75;10.75;7.50
66336;PMS1003;53139;45.576;5.304;2023-04-03T10:20:30;16.25;14.25;8.25
66336;PMS1003;53139;45.576;5.304;2023-04-03T10:23:42;10.00;9.50;6.25
66336;PMS1003;53139;45.576;5.304;2023-04-03T10:27:03;13.25;10.50;8.00
66336;PMS1003;53139;45.576;5.304;2023-04-03T10:30:42;16.75;12.00;7.50
66336;PMS1003;53139;45.576;5.304;2023-04-03T11:03:10;15.50;10.25;8.00
66336;PMS1003;53139;45.576;5.304;2023-04-03T11:06:39;14.00;10.25;7.75
66336;PMS1003;53139;45.576;5.304;2023-04-03T11:10:25;13.50;10.25;7.25
66336;PMS1003;53139;45.576;5.304;2023-04-03T11:13:47;11.25;10.50;8.00
66336;PMS1003;53139;45.576;5.304;2023-04-03T11:17:20;14.75;12.75;7.50
66336;PMS1003;53139;45.576;5.304;2023-04-03T11:20:33;15.00;9.50;7.00
66336;PMS1003;53139;45.576;5.304;2023-04-03T11:23:53;15.25;14.50;10.75
66336;PMS1003;53139;45.576;5.304;2023-04-03T11:28:05;12.25;10.00;8.00
66336;PMS1003;53139;45.576;5.304;2023-04-03T11:31:42;16.00;12.75;8.50
66336;PMS1003;53139;45.576;5.304;2023-04-03T11:34:59;14.25;10.50;7.00
66336;PMS1003;53139;45.576;5.304;2023-04-03T11:38:03;13.50;9.75;7.00
66336;PMS1003;53139;45.576;5.304;2023-04-03T11:41:25;13.75;9.75;5.50
66336;PMS1003;53139;45.576;5.304;2023-04-03T11:44:35;12.75;9.00;7.25
66336;PMS1003;53139;45.576;5.304;2023-04-03T11:47:44;14.00;9.00;7.50
66336;PMS1003;53139;45.576;5.304;2023-04-03T11:50:49;7.25;6.25;3.25
66336;PMS1003;53139;45.576;5.304;2023-04-03T11:53:50;17.00;14.25;9.50
66336;PMS1003;53139;45.576;5.304;2023-04-03T11:56:51;13.00;11.50;7.75
66336;PMS1003;53139;45.576;5.304;2023-04-03T11:59:52;11.25;9.25;7.00
66336;PMS1003;53139;45.576;5.304;2023-04-03T12:02:59;11.50;11.50;8.00
66336;PMS1003;53139;45.576;5.304;2023-04-03T12:12:55;13.25;9.50;7.50
66336;PMS1003;53139;45.576;5.304;2023-04-03T12:15:57;13.50;11.00;8.00
66336;PMS1003;53139;45.576;5.304;2023-04-03T12:19:01;13.75;11.25;8.25
66336;PMS1003;53139;45.576;5.304;2023-04-03T12:22:15;18.50;14.25;9.00
66336;PMS1003;53139;45.576;5.304;2023-04-03T12:28:50;15.50;14.50;9.50
66336;PMS1003;53139;45.576;5.304;2023-04-03T12:31:56;14.00;10.50;8.00
66336;PMS1003;53139;45.576;5.304;2023-04-03T12:38:56;14.00;14.00;9.50
66336;PMS1003;53139;45.576;5.304;2023-04-03T12:45:58;17.50;14.50;9.00
66336;PMS1003;53139;45.576;5.304;2023-04-03T12:49:05;13.25;10.75;8.75
66336;PMS1003;53139;45.576;5.304;2023-04-03T12:55:44;10.50;10.00;7.50
66336;PMS1003;53139;45.576;5.304;2023-04-03T12:58:45;10.25;8.50;6.75
66336;PMS1003;53139;45.576;5.304;2023-04-03T13:02:01;14.25;11.75;9.00
66336;PMS1003;53139;45.576;5.304;2023-04-03T13:05:06;15.25;11.25;8.00
66336;PMS1003;53139;45.576;5.304;2023-04-03T13:08:10;14.00;11.25;8.00
66336;PMS1003;53139;45.576;5.304;2023-04-03T13:11:15;14.50;14.00;10.50
66336;PMS1003;53139;45.576;5.304;2023-04-03T13:14:19;11.50;10.75;8.25
66336;PMS1003;53139;45.576;5.304;2023-04-03T13:17:22;16.00;13.25;8.00
66336;PMS1003;53139;45.576;5.304;2023-04-03T13:20:27;12.25;11.00;8.50
66336;PMS1003;53139;45.576;5.304;2023-04-03T13:23:32;14.00;13.00;8.75
66336;PMS1003;53139;45.576;5.304;2023-04-03T13:26:36;9.50;8.00;7.00
66336;PMS1003;53139;45.576;5.304;2023-04-03T13:29:38;12.75;9.25;7.50
66336;PMS1003;53139;45.576;5.304;2023-04-03T13:32:39;12.00;11.25;8.25
66336;PMS1003;53139;45.576;5.304;2023-04-03T13:35:45;13.00;11.75;8.75
66336;PMS1003;53139;45.576;5.304;2023-04-03T13:38:46;12.75;10.50;8.00
66336;PMS1003;53139;45.576;5.304;2023-04-03T13:42:00;12.75;10.50;8.75
66336;PMS1003;53139;45.576;5.304;2023-04-03T13:45:21;11.00;11.00;8.75
66336;PMS1003;53139;45.576;5.304;2023-04-03T13:48:27;11.50;9.50;7.75
66336;PMS1003;53139;45.576;5.304;2023-04-03T13:51:45;11.50;9.00;7.00
66336;PMS1003;53139;45.576;5.304;2023-04-03T13:54:47;10.50;10.50;8.50
66336;PMS1003;53139;45.576;5.304;2023-04-03T14:07:37;7.00;7.00;5.00
66336;PMS1003;53139;45.576;5.304;2023-04-03T14:10:37;11.00;9.00;7.75
66336;PMS1003;53139;45.576;5.304;2023-04-03T14:13:39;9.50;8.75;5.00
66336;PMS1003;53139;45.576;5.304;2023-04-03T14:16:42;9.50;7.25;6.00
66336;PMS1003;53139;45.576;5.304;2023-04-03T14:19:45;9.00;7.50;6.00
66336;PMS1003;53139;45.576;5.304;2023-04-03T14:22:46;7.75;7.00;4.50
66336;PMS1003;53139;45.576;5.304;2023-04-03T14:25:47;9.75;8.25;6.00
66336;PMS1003;53139;45.576;5.304;2023-04-03T14:28:51;10.00;10.00;6.75
66336;PMS1003;53139;45.576;5.304;2023-04-03T14:31:53;11.00;9.75;6.25
66336;PMS1003;53139;45.576;5.304;2023-04-03T14:34:54;9.50;8.75;4.75
66336;PMS1003;53139;45.576;5.304;2023-04-03T14:37:56;10.50;8.00;6.00
66336;PMS1003;53139;45.576;5.304;2023-04-03T14:40:57;8.50;5.00;3.00
66336;PMS1003;53139;45.576;5.304;2023-04-03T14:43:58;8.75;8.75;6.00
66336;PMS1003;53139;45.576;5.304;2023-04-03T14:46:59;10.75;8.50;5.50
66336;PMS1003;53139;45.576;5.304;2023-04-03T14:50:03;7.50;7.50;5.25
66336;PMS1003;53139;45.576;5.304;2023-04-03T14:53:05;8.75;7.25;5.00
66336;PMS1003;53139;45.576;5.304;2023-04-03T14:56:22;12.00;10.00;6.00
66336;PMS1003;53139;45.576;5.304;2023-04-03T14:59:49;9.00;7.25;5.00
66336;PMS1003;53139;45.576;5.304;2023-04-03T15:04:05;9.00;9.00;6.00
66336;PMS1003;53139;45.576;5.304;2023-04-03T15:08:12;11.25;7.25;6.00
66336;PMS1003;53139;45.576;5.304;2023-04-03T15:11:53;8.00;6.25;5.00
66336;PMS1003;53139;45.576;5.304;2023-04-03T15:15:44;8.75;6.50;5.00
66336;PMS1003;53139;45.576;5.304;2023-04-03T15:18:57;6.25;6.25;4.00
66336;PMS1003;53139;45.576;5.304;2023-04-03T15:23:06;7.00;7.00;5.25
66336;PMS1003;53139;45.576;5.304;2023-04-03T15:31:18;4.50;4.50;2.75
66336;PMS1003;53139;45.576;5.304;2023-04-03T15:35:06;7.50;5.00;3.50
66336;PMS1003;53139;45.576;5.304;2023-04-03T15:59:21;9.00;7.75;5.75
66336;PMS1003;53139;45.576;5.304;2023-04-03T16:07:46;6.25;6.25;5.00
66336;PMS1003;53139;45.576;5.304;2023-04-03T16:10:54;9.00;5.75;4.25
66336;PMS1003;53139;45.576;5.304;2023-04-03T16:14:03;9.50;6.50;5.25
66336;PMS1003;53139;45.576;5.304;2023-04-03T16:17:54;7.50;7.50;5.00
66336;PMS1003;53139;45.576;5.304;2023-04-03T16:20:54;5.50;5.50;5.00
66336;PMS1003;53139;45.576;5.304;2023-04-03T16:24:46;5.00;5.00;4.00
66336;PMS1003;53139;45.576;5.304;2023-04-03T16:27:47;5.00;4.00;3.00
66336;PMS1003;53139;45.576;5.304;2023-04-03T16:30:47;6.00;6.00;4.00
66336;PMS1003;53139;45.576;5.304;2023-04-03T16:34:01;5.50;4.25;3.00
66336;PMS1003;53139;45.576;5.304;2023-04-03T16:37:01;4.75;4.50;4.00
66336;PMS1003;53139;45.576;5.304;2023-04-03T16:40:02;8.00;4.50;4.00
66336;PMS1003;53139;45.576;5.304;2023-04-03T16:43:11;5.00;3.00;3.00
66336;PMS1003;53139;45.576;5.304;2023-04-03T16:46:11;4.50;3.50;2.75
66336;PMS1003;53139;45.576;5.304;2023-04-03T16:49:24;4.50;4.50;3.25
66336;PMS1003;53139;45.576;5.304;2023-04-03T16:52:24;3.25;3.00;2.75
66336;PMS1003;53139;45.576;5.304;2023-04-03T16:55:25;3.75;3.25;2.25
66336;PMS1003;53139;45.576;5.304;2023-04-03T16:58:25;3.00;3.00;2.00
66336;PMS1003;53139;45.576;5.304;2023-04-03T17:01:26;3.50;3.50;3.00
66336;PMS1003;53139;45.576;5.304;2023-04-03T17:04:26;5.50;4.00;3.00
66336;PMS1003;53139;45.576;5.304;2023-04-03T17:07:26;2.00;1.25;1.00
66336;PMS1003;53139;45.576;5.304;2023-04-03T17:10:27;5.00;3.25;3.00
66336;PMS1003;53139;45.576;5.304;2023-04-03T17:13:28;3.00;3.00;1.75
66336;PMS1003;53139;45.576;5.304;2023-04-03T17:16:32;2.00;1.00;1.00
66336;PMS1003;53139;45.576;5.304;2023-04-03T17:19:35;5.00;4.00;3.00
66336;PMS1003;53139;45.576;5.304;2023-04-03T17:22:37;3.50;3.50;3.00
66336;PMS1003;53139;45.576;5.304;2023-04-03T17:25:37;3.50;1.00;1.00
66336;PMS1003;53139;45.576;5.304;2023-04-03T17:28:38;5.00;3.25;3.00
66336;PMS1003;53139;45.576;5.304;2023-04-03T17:31:40;3.25;3.00;2.75
66336;PMS1003;53139;45.576;5.304;2023-04-03T17:34:40;9.00;4.00;4.00
66336;PMS1003;53139;45.576;5.304;2023-04-03T17:37:41;4.00;3.25;2.50
66336;PMS1003;53139;45.576;5.304;2023-04-03T17:40:42;4.00;4.00;3.00
66336;PMS1003;53139;45.576;5.304;2023-04-03T17:43:44;4.50;4.00;3.00
66336;PMS1003;53139;45.576;5.304;2023-04-03T17:46:45;2.50;2.50;2.00
66336;PMS1003;53139;45.576;5.304;2023-04-03T17:49:46;6.50;5.00;3.50
66336;PMS1003;53139;45.576;5.304;2023-04-03T17:52:46;4.00;3.50;3.00
66336;PMS1003;53139;45.576;5.304;2023-04-03T17:55:46;1.00;1.00;1.00
66336;PMS1003;53139;45.576;5.304;2023-04-03T17:58:47;3.00;3.00;2.00
66336;PMS1003;53139;45.576;5.304;2023-04-03T18:01:48;4.75;3.25;3.00
66336;PMS1003;53139;45.576;5.304;2023-04-03T18:04:50;4.25;4.00;3.50
66336;PMS1003;53139;45.576;5.304;2023-04-03T18:07:52;5.00;4.00;3.00
66336;PMS1003;53139;45.576;5.304;2023-04-03T18:10:53;7.25;5.50;4.75
66336;PMS1003;53139;45.576;5.304;2023-04-03T18:13:54;5.50;4.00;3.00
66336;PMS1003;53139;45.576;5.304;2023-04-03T18:16:57;7.25;6.00;4.00
66336;PMS1003;53139;45.576;5.304;2023-04-03T18:19:57;4.00;4.00;3.00
66336;PMS1003;53139;45.576;5.304;2023-04-03T18:22:58;10.50;7.00;6.00
66336;PMS1003;53139;45.576;5.304;2023-04-03T18:25:58;7.00;6.00;4.00
66336;PMS1003;53139;45.576;5.304;2023-04-03T18:29:01;9.25;7.00;5.25
66336;PMS1003;53139;45.576;5.304;2023-04-03T18:32:04;6.50;5.00;4.00
66336;PMS1003;53139;45.576;5.304;2023-04-03T18:35:06;7.00;6.50;5.25
66336;PMS1003;53139;45.576;5.304;2023-04-03T18:38:08;8.00;5.25;4.00
66336;PMS1003;53139;45.576;5.304;2023-04-03T18:41:08;10.75;7.25;4.00
66336;PMS1003;53139;45.576;5.304;2023-04-03T18:44:21;2.00;2.00;2.00
66336;PMS1003;53139;45.576;5.304;2023-04-03T18:47:24;8.00;7.00;6.00
66336;PMS1003;53139;45.576;5.304;2023-04-03T18:50:27;11.50;6.00;3.75
66336;PMS1003;53139;45.576;5.304;2023-04-03T18:53:31;8.00;6.50;4.00
66336;PMS1003;53139;45.576;5.304;2023-04-03T18:56:31;6.00;6.00;4.00
66336;PMS1003;53139;45.576;5.304;2023-04-03T19:00:21;10.50;6.00;4.75
66336;PMS1003;53139;45.576;5.304;2023-04-03T19:03:22;7.00;7.00;6.00
66336;PMS1003;53139;45.576;5.304;2023-04-03T19:06:22;7.00;7.00;4.50
66336;PMS1003;53139;45.576;5.304;2023-04-03T19:09:23;8.50;7.75;6.00
66336;PMS1003;53139;45.576;5.304;2023-04-03T19:12:25;12.50;12.50;10.00
66336;PMS1003;53139;45.576;5.304;2023-04-03T19:15:26;11.50;10.00;7.50
66336;PMS1003;53139;45.576;5.304;2023-04-03T19:18:27;14.00;12.25;8.75
66336;PMS1003;53139;45.576;5.304;2023-04-03T19:21:28;20.25;16.25;11.75
66336;PMS1003;53139;45.576;5.304;2023-04-03T19:24:32;10.25;8.75;7.00
66336;PMS1003;53139;45.576;5.304;2023-04-03T19:27:32;8.25;7.25;5.50
66336;PMS1003;53139;45.576;5.304;2023-04-03T19:30:33;17.00;13.75;10.25
66336;PMS1003;53139;45.576;5.304;2023-04-03T19:33:33;8.00;7.25;6.00
66336;PMS1003;53139;45.576;5.304;2023-04-03T19:36:35;7.25;6.00;4.00
66336;PMS1003;53139;45.576;5.304;2023-04-03T19:39:36;12.25;9.00;7.00
66336;PMS1003;53139;45.576;5.304;2023-04-03T19:42:37;4.00;4.00;3.00
66336;PMS1003;53139;45.576;5.304;2023-04-03T19:45:41;6.25;6.00;4.25
66336;PMS1003;53139;45.576;5.304;2023-04-03T19:48:44;7.00;6.00;3.00
66336;PMS1003;53139;45.576;5.304;2023-04-03T19:51:46;8.00;8.00;6.00
66336;PMS1003;53139;45.576;5.304;2023-04-03T19:54:46;7.00;7.00;4.00
66336;PMS1003;53139;45.576;5.304;2023-04-03T19:57:47;5.00;4.00;3.75
66336;PMS1003;53139;45.576;5.304;2023-04-03T20:00:47;6.25;6.00;4.00
66336;PMS1003;53139;45.576;5.304;2023-04-03T20:03:48;8.25;6.50;5.00
66336;PMS1003;53139;45.576;5.304;2023-04-03T20:06:48;7.75;7.00;6.25
66336;PMS1003;53139;45.576;5.304;2023-04-03T20:09:49;7.00;7.00;6.00
66336;PMS1003;53139;45.576;5.304;2023-04-03T20:12:50;7.50;6.50;4.25
66336;PMS1003;53139;45.576;5.304;2023-04-03T20:15:50;8.75;8.75;7.00
66336;PMS1003;53139;45.576;5.304;2023-04-03T20:18:51;9.00;7.50;6.00